createdAt,value
2022-08-12T00:00:37.905Z,102194.47
2022-08-12T00:03:24.397Z,102196.19
2022-08-12T00:06:10.874Z,102188.13
2022-08-12T00:08:57.581Z,102196.34
2022-08-12T00:11:45.635Z,102193.94
2022-08-12T00:14:32.381Z,102187.13
2022-08-12T00:17:18.900Z,102186.81
2022-08-12T00:20:05.287Z,102185.84
2022-08-12T00:22:58.980Z,102187.00
2022-08-12T00:26:21.531Z,102191.81
2022-08-12T00:29:09.304Z,102193.50
2022-08-12T00:31:55.845Z,102190.28
2022-08-12T00:34:49.042Z,102185.00
2022-08-12T00:37:37.916Z,102184.59
2022-08-12T00:40:27.518Z,102189.94
2022-08-12T00:42:57.036Z,102192.34
2022-08-12T00:45:25.372Z,102183.75
2022-08-12T00:47:54.066Z,102192.91
2022-08-12T00:50:23.232Z,102199.16
2022-08-12T00:52:52.854Z,102200.28
2022-08-12T00:55:21.523Z,102199.88
2022-08-12T00:57:52.013Z,102209.22
2022-08-12T01:00:23.458Z,102211.06
2022-08-12T01:02:55.727Z,102206.09
2022-08-12T01:05:43.522Z,102199.72
2022-08-12T01:08:49.934Z,102209.63
2022-08-12T01:11:31.789Z,102203.41
2022-08-12T01:14:01.625Z,102207.38
2022-08-12T01:16:30.029Z,102214.88
2022-08-12T01:18:58.191Z,102202.53
2022-08-12T01:21:28.555Z,102214.72
2022-08-12T01:24:30.327Z,102209.78
2022-08-12T01:26:53.649Z,102208.34
2022-08-12T01:29:32.866Z,102208.75
2022-08-12T01:32:06.404Z,102203.66
2022-08-12T01:34:39.512Z,102203.38
2022-08-12T01:37:10.358Z,102209.22
2022-08-12T01:40:34.041Z,102197.16
2022-08-12T01:42:47.522Z,102188.25
2022-08-12T01:45:17.771Z,102193.88
2022-08-12T01:48:08.339Z,102190.94
2022-08-12T01:51:05.565Z,102191.66
2022-08-12T01:53:55.668Z,102193.47
2022-08-12T01:56:26.513Z,102194.16
2022-08-12T01:59:20.323Z,102196.56
2022-08-12T02:01:50.532Z,102195.59
2022-08-12T02:05:04.483Z,102199.97
2022-08-12T02:07:56.841Z,102194.63
2022-08-12T02:11:16.453Z,102189.50
2022-08-12T02:14:12.545Z,102186.38
2022-08-12T02:16:49.521Z,102187.69
2022-08-12T02:19:23.119Z,102191.06
2022-08-12T02:22:18.775Z,102190.78
2022-08-12T02:24:49.133Z,102191.63
2022-08-12T02:27:19.214Z,102198.25
2022-08-12T02:29:49.363Z,102200.75
2022-08-12T02:32:17.214Z,102188.94
2022-08-12T02:34:45.931Z,102192.78
2022-08-12T02:37:15.686Z,102211.72
2022-08-12T02:39:49.352Z,102199.97
2022-08-12T02:42:20.823Z,102204.31
2022-08-12T02:44:53.243Z,102198.84
2022-08-12T02:47:59.038Z,102197.28
2022-08-12T02:50:15.479Z,102191.19
2022-08-12T02:52:44.875Z,102200.81
2022-08-12T02:55:28.632Z,102198.66
2022-08-12T02:58:12.509Z,102192.47
2022-08-12T03:00:44.332Z,102184.25
2022-08-12T03:03:14.912Z,102182.41
2022-08-12T03:05:59.716Z,102200.09
2022-08-12T03:08:35.691Z,102195.56
2022-08-12T03:11:17.920Z,102199.50
2022-08-12T03:13:52.490Z,102197.56
2022-08-12T03:16:23.886Z,102193.00
2022-08-12T03:18:52.177Z,102203.34
2022-08-12T03:21:55.505Z,102195.75
2022-08-12T03:24:09.355Z,102188.94
2022-08-12T03:26:37.672Z,102191.63
2022-08-12T03:29:07.031Z,102189.78
2022-08-12T03:31:34.936Z,102187.69
2022-08-12T03:34:08.185Z,102191.19
2022-08-12T03:36:38.807Z,102185.00
2022-08-12T03:39:18.391Z,102182.59
2022-08-12T03:42:01.280Z,102181.47
2022-08-12T03:44:56.868Z,102186.13
2022-08-12T03:48:02.076Z,102186.84
2022-08-12T03:50:49.513Z,102187.41
2022-08-12T03:53:43.657Z,102188.69
2022-08-12T03:56:30.542Z,102188.56
2022-08-12T03:59:21.505Z,102187.41
2022-08-12T04:01:55.308Z,102191.53
2022-08-12T04:04:34.897Z,102179.47
2022-08-12T04:07:09.847Z,102188.69
2022-08-12T04:09:43.656Z,102195.91
2022-08-12T04:12:32.897Z,102188.56
2022-08-12T04:15:01.744Z,102191.38
2022-08-12T04:17:30.266Z,102182.72
2022-08-12T04:19:59.160Z,102189.69
2022-08-12T04:22:29.530Z,102189.53
2022-08-12T04:25:03.157Z,102189.69
2022-08-12T04:27:32.251Z,102192.09
2022-08-12T04:30:29.189Z,102196.16
2022-08-12T04:32:51.126Z,102189.53
2022-08-12T04:35:20.620Z,102190.28
2022-08-12T04:37:58.535Z,102194.06
2022-08-12T04:40:30.834Z,102193.78
2022-08-12T04:43:01.229Z,102203.97
2022-08-12T04:45:30.925Z,102195.63
2022-08-12T04:47:59.342Z,102201.31
2022-08-12T04:50:34.579Z,102206.97
2022-08-12T04:53:09.124Z,102196.28
2022-08-12T04:55:39.195Z,102206.03
2022-08-12T04:58:08.008Z,102208.91
2022-08-12T05:00:35.899Z,102203.38
2022-08-12T05:03:06.362Z,102202.66
2022-08-12T05:05:36.326Z,102199.19
2022-08-12T05:08:07.493Z,102201.88
2022-08-12T05:10:35.846Z,102203.84
2022-08-12T05:13:05.570Z,102206.72
2022-08-12T05:15:34.402Z,102208.06
2022-08-12T05:18:20.335Z,102198.97
2022-08-12T05:20:49.103Z,102190.47
2022-08-12T05:23:19.449Z,102203.72
2022-08-12T05:25:50.181Z,102198.38
2022-08-12T05:28:18.373Z,102196.34
2022-08-12T05:30:46.724Z,102191.53
2022-08-12T05:33:15.751Z,102190.47
2022-08-12T05:35:44.817Z,102192.16
2022-08-12T05:38:34.514Z,102175.75
2022-08-12T05:41:04.404Z,102188.44
2022-08-12T05:43:34.979Z,102190.50
2022-08-12T05:46:02.776Z,102195.53
2022-08-12T05:48:31.080Z,102187.66
2022-08-12T05:50:58.906Z,102185.03
2022-08-12T05:53:26.731Z,102188.69
2022-08-12T05:55:54.644Z,102185.63
2022-08-12T05:58:22.389Z,102185.88
2022-08-12T06:00:50.163Z,102187.78
2022-08-12T06:03:19.370Z,102187.00
2022-08-12T06:05:54.904Z,102186.94
2022-08-12T06:08:25.027Z,102181.75
2022-08-12T06:10:53.254Z,102172.78
2022-08-12T06:13:28.479Z,102177.00
2022-08-12T06:16:10.616Z,102163.97
2022-08-12T06:18:40.129Z,102168.75
2022-08-12T06:21:09.070Z,102167.72
2022-08-12T06:23:41.987Z,102171.78
2022-08-12T06:26:13.034Z,102169.09
2022-08-12T06:28:44.182Z,102169.72
2022-08-12T06:31:26.988Z,102164.06
2022-08-12T06:34:52.891Z,102164.44
2022-08-12T06:36:44.632Z,102166.44
2022-08-12T06:39:15.280Z,102163.09
2022-08-12T06:42:02.426Z,102154.41
2022-08-12T06:44:50.589Z,102162.09
2022-08-12T06:47:19.609Z,102160.19
2022-08-12T06:49:49.558Z,102148.53
2022-08-12T06:52:17.437Z,102159.16
2022-08-12T06:54:45.901Z,102158.50
2022-08-12T06:58:06.768Z,102157.69
2022-08-12T07:00:01.051Z,102169.16
2022-08-12T07:02:30.681Z,102154.19
2022-08-12T07:05:00.219Z,102160.06
2022-08-12T07:07:27.926Z,102157.41
2022-08-12T07:10:07.631Z,102156.66
2022-08-12T07:12:36.940Z,102157.38
2022-08-12T07:15:05.128Z,102167.66
2022-08-12T07:17:37.531Z,102162.63
2022-08-12T07:20:20.267Z,102160.13
2022-08-12T07:22:59.131Z,102155.41
2022-08-12T07:25:37.858Z,102159.03
2022-08-12T07:28:13.491Z,102160.78
2022-08-12T07:30:46.585Z,102160.06
2022-08-12T07:33:16.895Z,102167.56
2022-08-12T07:35:45.608Z,102155.25
2022-08-12T07:38:33.605Z,102158.84
2022-08-12T07:41:16.629Z,102159.47
2022-08-12T07:44:03.925Z,102164.59
2022-08-12T07:46:41.796Z,102166.34
2022-08-12T07:49:15.339Z,102168.03
2022-08-12T07:51:44.727Z,102164.28
2022-08-12T07:54:13.824Z,102167.78
2022-08-12T07:56:42.577Z,102177.13
2022-08-12T07:59:10.397Z,102178.47
2022-08-12T08:01:38.272Z,102173.16
2022-08-12T08:04:26.344Z,102169.22
2022-08-12T08:06:54.325Z,102175.16
2022-08-12T08:09:22.989Z,102168.19
2022-08-12T08:12:18.495Z,102178.34
2022-08-12T08:14:50.123Z,102177.00
2022-08-12T08:17:18.417Z,102182.50
2022-08-12T08:20:03.993Z,102175.28
2022-08-12T08:22:41.984Z,102186.53
2022-08-12T08:25:34.711Z,102189.53
2022-08-12T08:28:04.333Z,102183.25
2022-08-12T08:30:34.846Z,102182.78
2022-08-12T08:33:02.509Z,102191.34
2022-08-12T08:35:48.494Z,102188.94
2022-08-12T08:38:25.521Z,102183.25
2022-08-12T08:42:16.579Z,102187.53
2022-08-12T08:44:11.087Z,102186.72
2022-08-12T08:46:43.677Z,102187.97
2022-08-12T08:49:12.094Z,102190.81
2022-08-12T08:51:40.151Z,102188.09
2022-08-12T08:54:08.869Z,102198.13
2022-08-12T08:57:05.992Z,102189.47
2022-08-12T08:59:34.819Z,102187.34
2022-08-12T09:02:02.734Z,102182.50
2022-08-12T09:07:51.324Z,102186.00
2022-08-12T09:10:15.580Z,102187.25
2022-08-12T09:13:23.167Z,102181.53
2022-08-12T09:15:57.643Z,102179.06
2022-08-12T09:18:33.446Z,102187.66
2022-08-12T09:21:02.236Z,102179.66
2022-08-12T09:23:59.615Z,102178.81
2022-08-12T09:26:19.734Z,102178.94
2022-08-12T09:32:08.178Z,102187.47
2022-08-12T09:34:25.445Z,102178.22
2022-08-12T09:37:18.799Z,102186.00
2022-08-12T09:40:05.720Z,102179.13
2022-08-12T09:46:11.050Z,102178.03
2022-08-12T09:48:36.327Z,102171.03
2022-08-12T09:51:10.837Z,102172.13
2022-08-12T09:54:09.026Z,102176.16
2022-08-12T09:57:01.130Z,102175.88
2022-08-12T10:00:13.845Z,102176.34
2022-08-12T10:02:53.158Z,102175.44
2022-08-12T10:05:13.925Z,102166.25
2022-08-12T10:07:45.528Z,102176.97
2022-08-12T10:10:22.397Z,102176.13
2022-08-12T10:13:33.941Z,102173.81
2022-08-12T10:16:05.203Z,102175.16
2022-08-12T10:18:51.233Z,102170.69
2022-08-12T10:21:36.335Z,102171.09
2022-08-12T10:24:09.471Z,102173.41
2022-08-12T10:26:58.348Z,102169.66
2022-08-12T10:30:03.117Z,102169.66
2022-08-12T10:32:43.913Z,102171.69
2022-08-12T10:35:15.990Z,102170.44
2022-08-12T10:38:38.530Z,102162.78
2022-08-12T10:40:37.514Z,102161.16
2022-08-12T10:43:24.326Z,102163.81
2022-08-12T10:45:57.173Z,102154.88
2022-08-12T10:48:34.677Z,102156.03
2022-08-12T10:51:51.811Z,102162.34
2022-08-12T10:54:00.831Z,102163.81
2022-08-12T10:56:35.352Z,102161.88
2022-08-12T10:59:10.595Z,102157.94
2022-08-12T11:04:19.580Z,102160.28
2022-08-12T11:04:44.967Z,102164.03
2022-08-12T11:08:37.038Z,102155.59
2022-08-12T11:10:06.907Z,102152.22
2022-08-12T11:12:58.447Z,102154.78
2022-08-12T11:16:02.819Z,102159.38
2022-08-12T11:18:18.332Z,102155.53
2022-08-12T11:20:48.269Z,102150.47
2022-08-12T11:23:25.898Z,102156.13
2022-08-12T11:26:07.581Z,102148.06
2022-08-12T11:28:36.783Z,102155.22
2022-08-12T11:31:09.722Z,102156.69
2022-08-12T11:34:04.546Z,102147.44
2022-08-12T11:36:28.518Z,102159.19
2022-08-12T11:38:56.327Z,102154.56
2022-08-12T11:41:31.808Z,102149.13
2022-08-12T11:44:29.173Z,102143.88
2022-08-12T11:46:53.084Z,102142.38
2022-08-12T11:49:30.970Z,102140.88
2022-08-12T11:52:03.323Z,102139.81
2022-08-12T11:54:32.024Z,102142.53
2022-08-12T11:57:52.468Z,102144.25
2022-08-12T12:02:38.655Z,102142.63
2022-08-12T12:05:07.055Z,102138.69
2022-08-12T12:08:37.613Z,102141.22
2022-08-12T12:10:26.445Z,102144.88
2022-08-12T12:12:54.586Z,102142.06
2022-08-12T12:15:25.475Z,102138.31
2022-08-12T12:18:30.918Z,102136.22
2022-08-12T12:21:02.131Z,102139.16
2022-08-12T12:23:36.136Z,102142.53
2022-08-12T12:26:08.140Z,102136.94
2022-08-12T12:28:39.689Z,102139.16
2022-08-12T12:31:14.958Z,102140.13
2022-08-12T12:33:58.122Z,102148.50
2022-08-12T12:36:29.930Z,102140.97
2022-08-12T12:39:00.060Z,102144.47
2022-08-12T12:42:43.122Z,102156.22
2022-08-12T12:44:26.057Z,102162.13
2022-08-12T12:47:29.308Z,102161.03
2022-08-12T12:49:53.647Z,102156.16
2022-08-12T12:52:21.576Z,102165.28
2022-08-12T12:54:55.825Z,102155.59
2022-08-12T12:57:36.412Z,102158.16
2022-08-12T13:00:17.747Z,102152.50
2022-08-12T13:02:52.903Z,102163.50
2022-08-12T13:05:27.860Z,102158.25
2022-08-12T13:08:01.127Z,102163.13
2022-08-12T13:10:37.067Z,102163.69
2022-08-12T13:14:07.172Z,102166.41
2022-08-12T13:15:59.041Z,102162.38
2022-08-12T13:18:37.386Z,102160.50
2022-08-12T13:21:15.711Z,102161.44
2022-08-12T13:23:57.935Z,102155.44
2022-08-12T13:26:25.662Z,102164.25
2022-08-12T13:28:55.910Z,102150.38
2022-08-12T13:31:24.976Z,102164.06
2022-08-12T13:34:34.720Z,102157.13
2022-08-12T13:36:43.494Z,102169.31
2022-08-12T13:39:12.820Z,102158.53
2022-08-12T13:41:44.657Z,102165.47
2022-08-12T13:44:13.079Z,102159.84
2022-08-12T13:46:42.173Z,102162.94
2022-08-12T13:49:11.651Z,102163.13
2022-08-12T13:51:52.915Z,102169.13
2022-08-12T13:54:21.952Z,102166.88
2022-08-12T13:56:51.427Z,102165.19
2022-08-12T13:59:24.813Z,102159.56
2022-08-12T14:01:56.875Z,102162.47
2022-08-12T14:04:24.822Z,102169.97
2022-08-12T14:06:54.037Z,102169.41
2022-08-12T14:09:21.747Z,102172.66
2022-08-12T14:11:58.406Z,102170.63
2022-08-12T14:14:31.466Z,102167.22
2022-08-12T14:17:10.905Z,102174.75
2022-08-12T14:20:00.972Z,102172.03
2022-08-12T14:22:30.368Z,102170.53
2022-08-12T14:24:59.210Z,102169.47
2022-08-12T14:28:04.566Z,102163.41
2022-08-12T14:30:29.457Z,102162.53
2022-08-12T14:32:59.648Z,102168.84
2022-08-12T14:35:28.155Z,102169.69
2022-08-12T14:38:29.154Z,102169.00
2022-08-12T14:41:00.704Z,102170.44
2022-08-12T14:43:44.274Z,102162.44
2022-08-12T14:46:23.368Z,102173.47
2022-08-12T14:48:54.090Z,102177.63
2022-08-12T14:52:48.458Z,102173.22
2022-08-12T14:58:00.491Z,102184.94
2022-08-12T15:00:16.910Z,102181.09
2022-08-12T15:02:45.553Z,102180.09
2022-08-12T15:05:13.570Z,102187.56
2022-08-12T15:08:04.840Z,102186.97
2022-08-12T15:10:46.194Z,102180.88
2022-08-12T15:13:23.364Z,102191.38
2022-08-12T15:15:52.865Z,102196.16
2022-08-12T15:18:22.844Z,102195.19
2022-08-12T15:20:54.465Z,102195.34
2022-08-12T15:23:29.032Z,102196.41
2022-08-12T15:26:06.761Z,102193.94
2022-08-12T15:28:35.659Z,102196.97
2022-08-12T15:31:21.210Z,102196.16
2022-08-12T15:33:57.203Z,102191.25
2022-08-12T15:36:54.355Z,102187.41
2022-08-12T15:39:16.923Z,102188.44
2022-08-12T15:41:49.341Z,102198.78
2022-08-12T15:44:38.109Z,102190.19
2022-08-12T15:47:07.660Z,102202.34
2022-08-12T15:49:54.385Z,102198.81
2022-08-12T15:52:28.647Z,102210.03
2022-08-12T15:54:58.725Z,102199.66
2022-08-12T15:57:27.893Z,102199.34
2022-08-12T16:00:07.597Z,102198.22
2022-08-12T16:02:51.303Z,102196.00
2022-08-12T16:06:11.778Z,102195.00
2022-08-12T16:08:15.227Z,102193.13
2022-08-12T16:10:43.742Z,102194.31
2022-08-12T16:13:32.422Z,102194.53
2022-08-12T16:16:22.838Z,102197.63
2022-08-12T16:19:02.117Z,102199.31
2022-08-12T16:21:51.258Z,102196.94
2022-08-12T16:24:24.615Z,102196.41
2022-08-12T16:26:55.252Z,102204.09
2022-08-12T16:29:52.418Z,102197.31
2022-08-12T16:32:24.015Z,102197.81
2022-08-12T16:34:55.536Z,102200.25
2022-08-12T16:37:32.831Z,102199.38
2022-08-12T16:40:13.155Z,102204.97
2022-08-12T16:42:54.151Z,102204.81
2022-08-12T16:45:32.325Z,102208.53
2022-08-12T16:48:35.363Z,102210.94
2022-08-12T16:51:10.346Z,102211.97
2022-08-12T16:53:44.605Z,102213.31
2022-08-12T16:56:15.975Z,102213.38
2022-08-12T16:58:45.194Z,102204.88
2022-08-12T17:01:14.590Z,102210.13
2022-08-12T17:03:47.149Z,102212.00
2022-08-12T17:06:22.446Z,102219.31
2022-08-12T17:08:55.391Z,102201.00
2022-08-12T17:11:24.746Z,102209.97
2022-08-12T17:13:55.946Z,102204.94
2022-08-12T17:16:24.048Z,102204.09
2022-08-12T17:18:57.610Z,102203.75
2022-08-12T17:21:41.565Z,102204.25
2022-08-12T17:24:21.375Z,102205.75
2022-08-12T17:26:54.133Z,102204.75
2022-08-12T17:29:32.054Z,102198.31
2022-08-12T17:32:11.406Z,102208.00
2022-08-12T17:34:58.476Z,102203.09
2022-08-12T17:37:28.339Z,102200.91
2022-08-12T17:40:12.800Z,102196.84
2022-08-12T17:42:47.533Z,102199.22
2022-08-12T17:45:19.936Z,102205.63
2022-08-12T17:48:04.911Z,102204.16
2022-08-12T17:50:34.884Z,102195.16
2022-08-12T17:53:04.006Z,102195.16
2022-08-12T17:55:40.199Z,102200.91
2022-08-12T17:58:35.555Z,102190.41
2022-08-12T18:01:11.501Z,102199.03
2022-08-12T18:04:05.698Z,102203.28
2022-08-12T18:06:28.631Z,102196.50
2022-08-12T18:08:59.920Z,102202.75
2022-08-12T18:12:06.112Z,102189.19
2022-08-12T18:14:41.367Z,102194.63
2022-08-12T18:17:10.157Z,102190.56
2022-08-12T18:20:06.048Z,102196.00
2022-08-12T18:22:30.697Z,102202.06
2022-08-12T18:25:03.669Z,102193.78
2022-08-12T18:27:44.872Z,102198.81
2022-08-12T18:30:28.964Z,102198.50
2022-08-12T18:33:04.518Z,102200.00
2022-08-12T18:35:52.963Z,102213.50
2022-08-12T18:38:24.669Z,102197.63
2022-08-12T18:41:20.841Z,102210.66
2022-08-12T18:44:02.816Z,102209.78
2022-08-12T18:46:53.311Z,102221.63
2022-08-12T18:49:38.852Z,102211.13
2022-08-12T18:52:11.927Z,102206.31
2022-08-12T18:54:52.862Z,102210.38
2022-08-12T18:58:05.844Z,102211.94
2022-08-12T19:00:21.573Z,102214.44
2022-08-12T19:02:53.197Z,102216.94
2022-08-12T19:05:45.836Z,102212.88
2022-08-12T19:08:14.118Z,102216.75
2022-08-12T19:10:50.298Z,102208.81
2022-08-12T19:13:39.998Z,102214.03
2022-08-12T19:16:12.536Z,102213.84
2022-08-12T19:18:44.724Z,102217.91
2022-08-12T19:21:16.790Z,102226.16
2022-08-12T19:24:08.467Z,102221.28
2022-08-12T19:26:36.771Z,102217.38
2022-08-12T19:29:07.506Z,102223.06
2022-08-12T19:31:44.636Z,102216.91
2022-08-12T19:37:27.228Z,102221.13
2022-08-12T19:40:31.435Z,102222.66
2022-08-12T19:42:57.536Z,102221.59
2022-08-12T19:45:42.311Z,102221.06
2022-08-12T19:48:16.609Z,102232.28
2022-08-12T19:50:50.612Z,102230.75
2022-08-12T19:53:22.974Z,102234.47
2022-08-12T19:55:55.267Z,102231.19
2022-08-12T19:58:24.324Z,102226.66
2022-08-12T20:00:54.713Z,102227.56
2022-08-12T20:03:39.862Z,102226.97
2022-08-12T20:06:13.727Z,102227.91
2022-08-12T20:08:49.265Z,102232.97
2022-08-12T20:12:14.049Z,102224.81
2022-08-12T20:14:19.255Z,102224.53
2022-08-12T20:16:53.298Z,102225.91
2022-08-12T20:20:00.873Z,102233.31
2022-08-12T20:22:29.800Z,102225.38
2022-08-12T20:25:08.958Z,102227.94
2022-08-12T20:28:04.252Z,102229.63
2022-08-12T20:30:52.723Z,102219.75
2022-08-12T20:33:16.690Z,102224.81
2022-08-12T20:36:13.375Z,102226.63
2022-08-12T20:38:39.801Z,102222.94
2022-08-12T20:41:16.492Z,102228.97
2022-08-12T20:43:51.783Z,102222.53
2022-08-12T20:46:20.390Z,102220.88
2022-08-12T20:48:55.323Z,102226.72
2022-08-12T20:51:28.126Z,102225.88
2022-08-12T20:54:08.927Z,102228.22
2022-08-12T20:56:38.547Z,102228.88
2022-08-12T20:59:19.780Z,102229.38
2022-08-12T21:01:49.075Z,102232.22
2022-08-12T21:04:36.902Z,102235.66
2022-08-12T21:07:09.458Z,102234.00
2022-08-12T21:09:44.441Z,102229.19
2022-08-12T21:12:31.082Z,102235.44
2022-08-12T21:15:17.146Z,102235.63
2022-08-12T21:18:11.320Z,102237.00
2022-08-12T21:20:52.744Z,102237.47
2022-08-12T21:23:21.617Z,102227.44
2022-08-12T21:25:53.885Z,102226.16
2022-08-12T21:28:30.779Z,102226.75
2022-08-12T21:32:34.395Z,102224.91
2022-08-12T21:34:08.447Z,102233.69
2022-08-12T21:36:43.180Z,102228.69
2022-08-12T21:39:27.869Z,102231.25
2022-08-12T21:42:06.939Z,102223.06
2022-08-12T21:45:46.961Z,102220.13
2022-08-12T21:47:26.265Z,102231.94
2022-08-12T21:50:03.890Z,102233.69
2022-08-12T21:52:42.143Z,102225.84
2022-08-12T21:55:18.639Z,102222.31
2022-08-12T21:57:53.307Z,102224.84
2022-08-12T22:00:33.507Z,102237.47
2022-08-12T22:04:03.056Z,102236.38
2022-08-12T22:06:43.935Z,102236.69
2022-08-12T22:09:16.007Z,102241.22
2022-08-12T22:11:49.252Z,102237.84
2022-08-12T22:14:29.115Z,102237.00
2022-08-12T22:16:58.553Z,102238.84
2022-08-12T22:19:28.677Z,102232.44
2022-08-12T22:21:58.859Z,102243.41
2022-08-12T22:24:31.800Z,102232.63
2022-08-12T22:27:08.056Z,102238.47
2022-08-12T22:30:05.124Z,102233.66
2022-08-12T22:32:33.744Z,102237.81
2022-08-12T22:35:23.342Z,102239.50
2022-08-12T22:38:10.776Z,102231.16
2022-08-12T22:40:45.066Z,102246.09
2022-08-12T22:43:31.913Z,102243.66
2022-08-12T22:46:18.210Z,102247.66
2022-08-12T22:48:50.636Z,102239.00
2022-08-12T22:51:24.159Z,102241.41
2022-08-12T22:53:54.785Z,102240.53
2022-08-12T22:56:30.667Z,102234.47
2022-08-12T22:59:03.097Z,102233.91
2022-08-12T23:02:01.278Z,102237.16
2022-08-12T23:04:28.014Z,102227.22
2022-08-12T23:06:58.414Z,102231.94
2022-08-12T23:09:44.934Z,102230.84
2022-08-12T23:12:37.425Z,102229.56
2022-08-12T23:15:09.492Z,102232.66
2022-08-12T23:17:41.258Z,102230.97
2022-08-12T23:20:11.499Z,102228.00
2022-08-12T23:22:40.131Z,102233.97
2022-08-12T23:25:18.884Z,102240.03
2022-08-12T23:28:29.742Z,102234.25
2022-08-12T23:30:58.830Z,102233.69
2022-08-12T23:34:01.640Z,102234.56
2022-08-12T23:36:31.799Z,102241.94
2022-08-12T23:40:13.941Z,102240.94
2022-08-12T23:42:17.485Z,102238.81
2022-08-12T23:44:48.526Z,102236.41
2022-08-12T23:47:22.806Z,102233.84
2022-08-12T23:49:57.269Z,102238.97
2022-08-12T23:52:33.978Z,102231.19
2022-08-12T23:55:04.985Z,102234.63
2022-08-12T23:58:21.510Z,102225.44
